createdAt,value
2023-01-25T00:01:05.515Z,34.50
2023-01-25T00:03:33.525Z,32.83
2023-01-25T00:06:01.859Z,34.23
2023-01-25T00:08:30.064Z,29.77
2023-01-25T00:10:58.682Z,32.07
2023-01-25T00:13:26.846Z,31.60
2023-01-25T00:16:01.372Z,30.97
2023-01-25T00:18:29.246Z,34.70
2023-01-25T00:20:57.170Z,32.67
2023-01-25T00:23:25.046Z,31.90
2023-01-25T00:25:58.841Z,34.27
2023-01-25T00:28:26.958Z,33.57
2023-01-25T00:31:00.249Z,35.50
2023-01-25T00:33:45.472Z,36.10
2023-01-25T00:36:33.965Z,33.57
2023-01-25T00:39:02.223Z,33.57
2023-01-25T00:41:30.387Z,33.90
2023-01-25T00:43:58.945Z,34.17
2023-01-25T00:46:28.644Z,33.00
2023-01-25T00:48:57.530Z,33.20
2023-01-25T00:51:25.971Z,32.07
2023-01-25T00:53:54.221Z,31.90
2023-01-25T00:56:22.143Z,32.17
2023-01-25T00:58:50.306Z,32.03
2023-01-25T01:01:20.425Z,33.47
2023-01-25T01:03:52.855Z,30.27
2023-01-25T01:06:20.771Z,30.60
2023-01-25T01:08:48.577Z,32.83
2023-01-25T01:11:16.467Z,33.90
2023-01-25T01:13:44.362Z,34.23
2023-01-25T01:16:13.930Z,33.77
2023-01-25T01:18:44.509Z,33.43
2023-01-25T01:21:15.204Z,30.63
2023-01-25T01:23:43.199Z,34.17
2023-01-25T01:26:14.091Z,36.70
2023-01-25T01:28:43.927Z,34.93
2023-01-25T01:31:14.402Z,36.67
2023-01-25T01:33:50.528Z,35.17
2023-01-25T01:36:21.702Z,37.97
2023-01-25T01:38:49.886Z,39.40
2023-01-25T01:41:18.637Z,36.40
2023-01-25T01:43:48.053Z,37.47
2023-01-25T01:46:20.999Z,37.17
2023-01-25T01:48:53.385Z,33.87
2023-01-25T01:51:30.433Z,38.10
2023-01-25T01:54:03.810Z,32.83
2023-01-25T01:56:36.997Z,33.70
2023-01-25T01:59:08.192Z,40.07
2023-01-25T02:01:36.368Z,36.40
2023-01-25T02:04:07.994Z,38.00
2023-01-25T02:06:44.896Z,36.70
2023-01-25T02:09:16.890Z,35.57
2023-01-25T02:11:45.460Z,32.47
2023-01-25T02:14:14.430Z,36.00
2023-01-25T02:16:43.108Z,35.90
2023-01-25T02:19:17.157Z,33.50
2023-01-25T02:21:48.454Z,33.40
2023-01-25T02:24:21.729Z,31.23
2023-01-25T02:26:51.068Z,28.20
2023-01-25T02:29:23.141Z,34.93
2023-01-25T02:32:00.324Z,31.90
2023-01-25T02:34:29.275Z,33.07
2023-01-25T02:36:57.289Z,30.47
2023-01-25T02:39:26.767Z,32.73
2023-01-25T02:41:56.352Z,31.47
2023-01-25T02:44:28.350Z,28.70
2023-01-25T02:46:57.373Z,32.13
2023-01-25T02:49:26.056Z,30.83
2023-01-25T02:51:57.211Z,29.70
2023-01-25T02:54:26.862Z,27.67
2023-01-25T02:56:56.512Z,29.43
2023-01-25T02:59:26.955Z,25.93
2023-01-25T03:01:59.194Z,31.53
2023-01-25T03:04:30.018Z,28.37
2023-01-25T03:06:58.162Z,26.17
2023-01-25T03:09:26.724Z,30.57
2023-01-25T03:11:56.110Z,26.17
2023-01-25T03:14:24.581Z,25.67
2023-01-25T03:16:52.642Z,26.67
2023-01-25T03:19:23.619Z,22.60
2023-01-25T03:21:51.685Z,25.73
2023-01-25T03:24:20.359Z,27.57
2023-01-25T03:27:06.909Z,25.40
2023-01-25T03:30:06.282Z,28.00
2023-01-25T03:32:34.619Z,23.93
2023-01-25T03:35:07.908Z,24.97
2023-01-25T03:37:35.942Z,26.33
2023-01-25T03:40:06.401Z,23.77
2023-01-25T03:42:34.742Z,26.37
2023-01-25T03:45:06.822Z,27.37
2023-01-25T03:47:34.705Z,26.13
2023-01-25T03:50:03.539Z,24.20
2023-01-25T03:53:01.333Z,24.07
2023-01-25T03:55:33.216Z,26.87
2023-01-25T03:58:01.311Z,26.37
2023-01-25T04:00:30.506Z,24.70
2023-01-25T04:03:01.667Z,26.10
2023-01-25T04:05:30.898Z,26.20
2023-01-25T04:07:58.787Z,27.33
2023-01-25T04:10:35.132Z,25.37
2023-01-25T04:13:03.145Z,27.30
2023-01-25T04:15:32.370Z,25.27
2023-01-25T04:18:06.847Z,23.97
2023-01-25T04:20:34.822Z,30.07
2023-01-25T04:23:02.650Z,29.20
2023-01-25T04:25:37.039Z,26.83
2023-01-25T04:28:08.359Z,27.03
2023-01-25T04:30:37.669Z,22.50
2023-01-25T04:33:06.703Z,25.70
2023-01-25T04:35:35.742Z,27.07
2023-01-25T04:38:06.412Z,26.47
2023-01-25T04:40:38.705Z,24.33
2023-01-25T04:43:07.270Z,26.47
2023-01-25T04:45:37.462Z,27.67
2023-01-25T04:48:13.944Z,23.73
2023-01-25T04:50:49.251Z,28.80
2023-01-25T04:53:18.483Z,25.37
2023-01-25T04:55:48.227Z,26.57
2023-01-25T04:58:16.738Z,27.10
2023-01-25T05:00:46.672Z,28.57
2023-01-25T05:03:15.402Z,30.57
2023-01-25T05:05:47.965Z,29.70
2023-01-25T05:08:19.458Z,26.03
2023-01-25T05:10:47.550Z,28.20
2023-01-25T05:13:35.698Z,30.83
2023-01-25T05:16:25.263Z,27.27
2023-01-25T05:18:53.213Z,29.10
2023-01-25T05:21:44.983Z,32.57
2023-01-25T05:24:14.805Z,33.33
2023-01-25T05:27:01.237Z,29.23
2023-01-25T05:29:38.423Z,27.47
2023-01-25T05:32:11.492Z,30.50
2023-01-25T05:34:41.242Z,31.73
2023-01-25T05:37:11.583Z,29.33
2023-01-25T05:39:43.371Z,31.63
2023-01-25T05:42:13.758Z,32.07
2023-01-25T05:44:42.068Z,29.43
2023-01-25T05:47:14.320Z,31.97
2023-01-25T05:49:42.485Z,32.30
2023-01-25T05:52:15.538Z,34.07
2023-01-25T05:54:44.651Z,33.83
2023-01-25T05:57:15.671Z,34.20
2023-01-25T05:59:43.823Z,31.50
2023-01-25T06:02:15.961Z,28.87
2023-01-25T06:04:45.082Z,31.00
2023-01-25T06:07:14.285Z,27.67
2023-01-25T06:09:43.050Z,28.50
2023-01-25T06:12:10.998Z,29.80
2023-01-25T06:14:38.884Z,33.67
2023-01-25T06:17:07.265Z,31.10
2023-01-25T06:19:55.016Z,30.40
2023-01-25T06:22:27.775Z,28.53
2023-01-25T06:24:55.744Z,32.83
2023-01-25T06:27:23.538Z,30.43
2023-01-25T06:29:51.448Z,31.80
2023-01-25T06:32:19.321Z,28.80
2023-01-25T06:34:47.396Z,30.80
2023-01-25T06:37:22.925Z,28.40
2023-01-25T06:39:51.900Z,29.43
2023-01-25T06:42:19.725Z,32.53
2023-01-25T06:44:47.594Z,29.17
2023-01-25T06:47:15.387Z,28.27
2023-01-25T06:49:43.451Z,26.90
2023-01-25T06:52:11.606Z,31.13
2023-01-25T06:54:41.120Z,35.73
2023-01-25T06:57:10.194Z,24.53
2023-01-25T06:59:38.052Z,27.67
2023-01-25T07:02:06.075Z,26.80
2023-01-25T07:04:34.184Z,26.90
2023-01-25T07:07:02.003Z,28.93
2023-01-25T07:09:29.867Z,27.93
2023-01-25T07:11:59.000Z,30.13
2023-01-25T07:14:26.863Z,29.00
2023-01-25T07:16:54.871Z,27.77
2023-01-25T07:19:23.418Z,29.10
2023-01-25T07:26:53.441Z,31.38
2023-01-25T07:29:20.061Z,28.67
2023-01-25T07:31:46.824Z,27.77
2023-01-25T07:34:13.645Z,27.37
2023-01-25T07:36:40.870Z,28.33
2023-01-25T07:39:09.342Z,25.50
2023-01-25T07:41:35.987Z,28.00
2023-01-25T07:50:12.978Z,29.33
2023-01-25T07:52:40.935Z,28.50
2023-01-25T07:55:08.370Z,28.27
2023-01-25T07:57:34.995Z,27.27
2023-01-25T08:00:01.560Z,28.57
2023-01-25T08:02:28.319Z,28.63
2023-01-25T08:04:54.755Z,27.80
2023-01-25T08:10:24.236Z,31.60
2023-01-25T08:12:50.778Z,30.37
2023-01-25T08:15:17.337Z,30.50
2023-01-25T08:17:43.848Z,29.57
2023-01-25T08:20:11.826Z,30.87
2023-01-25T08:22:38.250Z,29.50
2023-01-25T08:25:05.595Z,31.47
2023-01-25T08:31:25.163Z,34.77
2023-01-25T08:33:52.083Z,35.17
2023-01-25T08:36:19.645Z,37.63
2023-01-25T08:38:47.169Z,37.60
2023-01-25T08:41:15.962Z,33.30
2023-01-25T08:43:43.113Z,36.10
2023-01-25T08:46:10.099Z,36.00
2023-01-25T08:52:04.785Z,33.07
2023-01-25T08:54:31.448Z,30.20
2023-01-25T08:56:57.951Z,33.60
2023-01-25T08:59:24.422Z,34.10
2023-01-25T09:01:50.810Z,34.97
2023-01-25T09:04:17.265Z,32.63
2023-01-25T09:06:43.866Z,32.63
2023-01-25T09:09:13.384Z,34.13
2023-01-25T09:16:43.538Z,39.47
2023-01-25T09:19:10.414Z,38.90
2023-01-25T09:21:36.851Z,34.97
2023-01-25T09:24:06.648Z,36.53
2023-01-25T09:26:36.893Z,36.87
2023-01-25T09:29:07.862Z,36.47
2023-01-25T09:31:36.147Z,39.60
2023-01-25T09:34:11.473Z,38.57
2023-01-25T09:36:42.868Z,34.77
2023-01-25T09:39:12.916Z,36.53
2023-01-25T09:42:21.351Z,37.53
2023-01-25T09:45:13.605Z,36.13
2023-01-25T09:47:48.467Z,32.07
2023-01-25T09:50:36.667Z,27.70
2023-01-25T09:53:17.256Z,30.70
2023-01-25T09:55:46.550Z,31.13
2023-01-25T09:58:18.938Z,33.77
2023-01-25T10:00:49.431Z,33.43
2023-01-25T10:03:23.483Z,32.63
2023-01-25T10:05:57.185Z,36.30
2023-01-25T10:08:32.292Z,37.10
2023-01-25T10:11:06.106Z,36.90
2023-01-25T10:13:33.985Z,34.40
2023-01-25T10:16:06.461Z,33.60
2023-01-25T10:18:43.981Z,34.07
2023-01-25T10:21:19.769Z,31.00
2023-01-25T10:24:27.853Z,35.90
2023-01-25T10:26:58.383Z,35.40
2023-01-25T10:29:29.220Z,35.63
2023-01-25T10:32:03.620Z,34.43
2023-01-25T10:34:54.314Z,34.43
2023-01-25T10:37:28.392Z,41.10
2023-01-25T10:40:02.471Z,36.87
2023-01-25T10:42:37.462Z,37.63
2023-01-25T10:45:12.004Z,36.43
2023-01-25T10:47:42.865Z,37.40
2023-01-25T10:50:31.826Z,34.80
2023-01-25T10:53:01.075Z,40.07
2023-01-25T10:55:29.237Z,37.40
2023-01-25T10:57:58.756Z,39.03
2023-01-25T11:00:30.683Z,39.33
2023-01-25T11:02:59.085Z,50.87
2023-01-25T11:05:33.550Z,43.73
2023-01-25T11:08:23.782Z,40.07
2023-01-25T11:10:52.978Z,37.73
2023-01-25T11:13:23.983Z,36.93
2023-01-25T11:15:54.851Z,39.03
2023-01-25T11:18:25.235Z,41.73
2023-01-25T11:21:14.804Z,39.83
2023-01-25T11:23:44.029Z,39.03
2023-01-25T11:26:17.331Z,41.60
2023-01-25T11:28:48.842Z,38.97
2023-01-25T11:31:19.563Z,39.90
2023-01-25T11:33:47.679Z,36.33
2023-01-25T11:36:23.711Z,39.83
2023-01-25T11:39:19.954Z,41.60
2023-01-25T11:42:04.255Z,39.20
2023-01-25T11:44:49.390Z,42.77
2023-01-25T11:47:27.711Z,43.93
2023-01-25T11:50:06.515Z,42.77
2023-01-25T11:52:48.649Z,43.50
2023-01-25T11:55:27.002Z,42.50
2023-01-25T11:58:12.542Z,42.03
2023-01-25T12:00:52.124Z,41.37
2023-01-25T12:03:52.127Z,43.40
2023-01-25T12:06:26.291Z,47.37
2023-01-25T12:09:15.812Z,43.67
2023-01-25T12:12:00.859Z,46.37
2023-01-25T12:14:41.622Z,48.83
2023-01-25T12:17:24.284Z,45.67
2023-01-25T12:20:10.558Z,48.80
2023-01-25T12:23:00.998Z,53.37
2023-01-25T12:25:39.458Z,46.80
2023-01-25T12:28:15.690Z,53.20
2023-01-25T12:30:51.281Z,49.27
2023-01-25T12:33:23.703Z,50.43
2023-01-25T12:35:58.742Z,50.67
2023-01-25T12:38:30.147Z,51.10
2023-01-25T12:41:01.254Z,53.50
2023-01-25T12:43:34.725Z,55.63
2023-01-25T12:46:13.063Z,53.83
2023-01-25T12:48:47.488Z,51.57
2023-01-25T12:51:17.961Z,50.37
2023-01-25T12:53:48.074Z,46.13
2023-01-25T12:56:30.453Z,52.80
2023-01-25T12:59:04.983Z,47.33
2023-01-25T13:01:38.903Z,48.20
2023-01-25T13:04:22.913Z,52.77
2023-01-25T13:06:58.172Z,54.47
2023-01-25T13:09:34.428Z,54.90
2023-01-25T13:12:05.124Z,49.73
2023-01-25T13:14:38.228Z,55.60
2023-01-25T13:17:21.972Z,54.47
2023-01-25T13:19:51.166Z,49.07
2023-01-25T13:23:00.961Z,52.13
2023-01-25T13:25:29.959Z,48.93
2023-01-25T13:28:34.278Z,59.30
2023-01-25T13:31:03.618Z,47.57
2023-01-25T13:33:35.610Z,48.63
2023-01-25T13:36:38.369Z,49.90
2023-01-25T13:39:39.616Z,51.03
2023-01-25T13:42:20.447Z,50.33
2023-01-25T13:44:51.918Z,47.40
2023-01-25T13:47:23.850Z,50.13
2023-01-25T13:49:57.731Z,50.27
2023-01-25T13:52:27.178Z,52.03
2023-01-25T13:54:57.410Z,45.83
2023-01-25T13:57:27.891Z,48.40
2023-01-25T14:00:10.077Z,49.13
2023-01-25T14:02:41.463Z,51.90
2023-01-25T14:05:19.834Z,49.27
2023-01-25T14:07:50.015Z,45.30
2023-01-25T14:10:23.460Z,51.47
2023-01-25T14:12:52.913Z,46.93
2023-01-25T14:15:23.567Z,49.10
2023-01-25T14:18:14.620Z,45.37
2023-01-25T14:20:43.384Z,47.77
2023-01-25T14:23:25.662Z,47.30
2023-01-25T14:25:54.912Z,41.07
2023-01-25T14:28:23.186Z,45.30
2023-01-25T14:30:56.228Z,45.67
2023-01-25T14:33:29.284Z,45.33
2023-01-25T14:36:16.074Z,44.97
2023-01-25T14:38:51.816Z,48.10
2023-01-25T14:41:26.747Z,45.10
2023-01-25T14:43:56.525Z,48.13
2023-01-25T14:46:29.936Z,44.30
2023-01-25T14:49:25.049Z,48.47
2023-01-25T14:51:58.966Z,45.60
2023-01-25T14:54:29.310Z,48.17
2023-01-25T14:57:00.516Z,42.90
2023-01-25T14:59:32.165Z,48.50
2023-01-25T15:02:02.945Z,47.57
2023-01-25T15:04:35.147Z,46.20
2023-01-25T15:07:16.629Z,44.63
2023-01-25T15:10:03.956Z,40.10
2023-01-25T15:12:32.836Z,49.40
2023-01-25T15:15:02.566Z,43.80
2023-01-25T15:17:44.277Z,44.17
2023-01-25T15:20:37.883Z,45.27
2023-01-25T15:23:21.248Z,48.10
2023-01-25T15:25:50.862Z,46.83
2023-01-25T15:28:18.734Z,49.87
2023-01-25T15:30:46.793Z,49.30
2023-01-25T15:33:20.463Z,48.43
2023-01-25T15:35:50.456Z,47.47
2023-01-25T15:38:18.865Z,51.27
2023-01-25T15:40:47.256Z,48.63
2023-01-25T15:43:16.873Z,47.70
2023-01-25T15:45:46.193Z,48.07
2023-01-25T15:48:17.359Z,48.33
2023-01-25T15:50:45.247Z,47.50
2023-01-25T15:53:16.516Z,48.17
2023-01-25T15:55:46.742Z,56.77
2023-01-25T15:58:21.767Z,49.10
2023-01-25T16:00:50.342Z,51.80
2023-01-25T16:03:20.135Z,52.83
2023-01-25T16:05:50.083Z,51.97
2023-01-25T16:08:21.879Z,46.90
2023-01-25T16:10:49.780Z,57.17
2023-01-25T16:13:17.572Z,55.13
2023-01-25T16:15:49.303Z,57.20
2023-01-25T16:18:17.296Z,58.80
2023-01-25T16:20:45.364Z,54.87
2023-01-25T16:23:13.700Z,56.90
2023-01-25T16:25:44.581Z,56.23
2023-01-25T16:28:15.136Z,56.43
2023-01-25T16:30:44.903Z,54.43
2023-01-25T16:33:13.117Z,54.77
2023-01-25T16:35:41.118Z,59.73
2023-01-25T16:38:11.892Z,63.53
2023-01-25T16:40:39.877Z,57.90
2023-01-25T16:43:09.033Z,66.53
2023-01-25T16:45:36.913Z,58.33
2023-01-25T16:48:04.948Z,59.97
2023-01-25T16:50:32.851Z,62.43
2023-01-25T16:53:00.717Z,62.17
2023-01-25T16:55:28.617Z,55.83
2023-01-25T16:57:56.458Z,61.00
2023-01-25T17:00:25.886Z,68.57
2023-01-25T17:03:00.029Z,63.13
2023-01-25T17:05:33.410Z,61.43
2023-01-25T17:08:01.441Z,60.60
2023-01-25T17:10:33.003Z,60.90
2023-01-25T17:13:01.059Z,63.10
2023-01-25T17:15:30.814Z,62.03
2023-01-25T17:17:58.741Z,71.50
2023-01-25T17:20:26.537Z,58.00
2023-01-25T17:22:54.395Z,64.93
2023-01-25T17:25:22.282Z,63.93
2023-01-25T17:27:50.203Z,62.50
2023-01-25T17:30:19.441Z,64.93
2023-01-25T17:32:48.705Z,61.53
2023-01-25T17:35:16.622Z,58.03
2023-01-25T17:37:44.589Z,57.00
2023-01-25T17:40:13.598Z,60.23
2023-01-25T17:42:41.590Z,65.70
2023-01-25T17:45:10.262Z,61.07
2023-01-25T17:47:38.365Z,63.07
2023-01-25T17:50:09.545Z,63.33
2023-01-25T17:52:37.675Z,57.67
2023-01-25T17:55:06.239Z,60.30
2023-01-25T17:57:36.707Z,66.33
2023-01-25T18:00:06.871Z,65.37
2023-01-25T18:02:43.578Z,50.20
2023-01-25T18:05:12.874Z,56.03
2023-01-25T18:07:40.686Z,59.27
2023-01-25T18:10:10.012Z,58.27
2023-01-25T18:12:38.133Z,69.37
2023-01-25T18:15:07.340Z,55.47
2023-01-25T18:17:35.786Z,61.47
2023-01-25T18:20:05.001Z,54.07
2023-01-25T18:22:34.280Z,59.10
2023-01-25T18:25:02.234Z,61.83
2023-01-25T18:27:30.457Z,55.17
2023-01-25T18:30:02.397Z,57.23
2023-01-25T18:32:32.678Z,53.63
2023-01-25T18:35:00.578Z,56.10
2023-01-25T18:37:33.417Z,55.63
2023-01-25T18:40:02.675Z,49.63
2023-01-25T18:42:30.572Z,56.73
2023-01-25T18:44:58.618Z,36.23
2023-01-25T18:47:26.576Z,50.27
2023-01-25T18:49:54.858Z,61.80
2023-01-25T18:52:24.065Z,50.50
2023-01-25T18:54:52.051Z,57.97
2023-01-25T18:57:21.654Z,53.53
2023-01-25T18:59:49.552Z,52.30
2023-01-25T19:02:18.286Z,57.17
2023-01-25T19:04:46.401Z,54.47
2023-01-25T19:07:14.585Z,48.97
2023-01-25T19:09:43.472Z,45.60
2023-01-25T19:12:11.516Z,56.73
2023-01-25T19:14:40.937Z,63.00
2023-01-25T19:17:08.849Z,61.13
2023-01-25T19:19:37.504Z,66.70
2023-01-25T19:22:05.425Z,57.37
2023-01-25T19:24:33.373Z,53.97
2023-01-25T19:27:01.281Z,57.87
2023-01-25T19:29:29.254Z,67.93
2023-01-25T19:31:58.408Z,63.43
2023-01-25T19:34:26.335Z,61.90
2023-01-25T19:36:54.220Z,65.77
2023-01-25T19:39:22.114Z,69.37
2023-01-25T19:41:52.588Z,65.93
2023-01-25T19:44:20.609Z,69.50
2023-01-25T19:46:48.821Z,75.67
2023-01-25T19:49:18.272Z,75.53
2023-01-25T19:51:52.728Z,77.73
2023-01-25T19:54:21.549Z,71.63
2023-01-25T19:56:50.554Z,85.83
2023-01-25T19:59:21.938Z,82.80
2023-01-25T20:01:49.907Z,67.73
2023-01-25T20:04:20.731Z,69.67
2023-01-25T20:06:49.594Z,79.90
2023-01-25T20:09:19.626Z,73.90
2023-01-25T20:11:47.955Z,84.67
2023-01-25T20:14:16.243Z,85.97
2023-01-25T20:16:44.322Z,90.93
2023-01-25T20:19:12.711Z,96.57
2023-01-25T20:21:42.149Z,84.57
2023-01-25T20:24:10.309Z,85.53
2023-01-25T20:26:42.494Z,86.70
2023-01-25T20:29:12.015Z,84.67
2023-01-25T20:31:41.177Z,89.83
2023-01-25T20:34:12.581Z,87.17
2023-01-25T20:36:43.086Z,96.83
2023-01-25T20:39:14.559Z,98.17
2023-01-25T20:41:42.633Z,90.60
2023-01-25T20:44:12.598Z,100.53
2023-01-25T20:46:42.061Z,90.70
2023-01-25T20:49:11.674Z,95.27
2023-01-25T20:51:39.834Z,91.93
2023-01-25T20:54:09.451Z,89.77
2023-01-25T20:56:37.686Z,90.27
2023-01-25T20:59:06.084Z,81.07
2023-01-25T21:01:36.861Z,73.73
2023-01-25T21:04:06.414Z,46.07
2023-01-25T21:06:35.341Z,54.30
2023-01-25T21:09:03.726Z,38.27
2023-01-25T21:11:33.202Z,39.23
2023-01-25T21:14:01.229Z,33.93
2023-01-25T21:16:29.189Z,33.63
2023-01-25T21:18:58.865Z,43.87
2023-01-25T21:21:28.709Z,36.73
2023-01-25T21:23:59.581Z,34.20
2023-01-25T21:26:29.628Z,42.03
2023-01-25T21:29:00.549Z,45.77
2023-01-25T21:31:30.778Z,39.80
2023-01-25T21:33:59.345Z,40.87
2023-01-25T21:36:27.640Z,42.20
2023-01-25T21:38:56.351Z,41.87
2023-01-25T21:41:25.998Z,40.30
2023-01-25T21:44:12.973Z,44.87
2023-01-25T21:46:49.239Z,37.73
2023-01-25T21:49:47.610Z,39.73
2023-01-25T21:52:16.238Z,45.73
2023-01-25T21:54:44.075Z,45.10
2023-01-25T21:57:12.429Z,41.93
2023-01-25T21:59:40.706Z,39.90
2023-01-25T22:02:13.905Z,39.30
2023-01-25T22:04:42.034Z,45.83
2023-01-25T22:07:10.753Z,47.17
2023-01-25T22:09:38.811Z,49.00
2023-01-25T22:12:06.878Z,53.17
2023-01-25T22:14:34.934Z,57.67
2023-01-25T22:17:03.219Z,49.37
2023-01-25T22:19:33.207Z,60.37
2023-01-25T22:22:01.225Z,55.97
2023-01-25T22:24:29.044Z,58.13
2023-01-25T22:27:04.542Z,62.47
2023-01-25T22:29:33.858Z,57.27
2023-01-25T22:32:02.147Z,56.53
2023-01-25T22:34:30.258Z,60.30
2023-01-25T22:36:59.527Z,59.07
2023-01-25T22:39:27.382Z,52.63
2023-01-25T22:41:55.705Z,58.37
2023-01-25T22:44:23.610Z,59.73
2023-01-25T22:46:52.723Z,59.60
2023-01-25T22:49:20.659Z,59.57
2023-01-25T22:51:48.769Z,52.50
2023-01-25T22:54:18.073Z,55.40
2023-01-25T22:56:45.943Z,51.37
2023-01-25T22:59:18.880Z,52.23
2023-01-25T23:01:47.077Z,50.80
2023-01-25T23:04:14.946Z,52.93
2023-01-25T23:06:42.834Z,56.10
2023-01-25T23:09:11.420Z,53.97
2023-01-25T23:11:40.784Z,55.40
2023-01-25T23:14:30.039Z,56.53
2023-01-25T23:17:18.680Z,60.33
2023-01-25T23:19:45.632Z,56.30
2023-01-25T23:22:13.498Z,55.43
2023-01-25T23:24:41.499Z,58.10
2023-01-25T23:27:12.390Z,56.10
2023-01-25T23:29:40.272Z,59.63
2023-01-25T23:32:08.115Z,58.97
2023-01-25T23:34:39.401Z,55.50
2023-01-25T23:37:08.227Z,61.20
2023-01-25T23:39:36.101Z,64.03
2023-01-25T23:42:04.249Z,60.17
2023-01-25T23:44:33.431Z,62.77
2023-01-25T23:47:01.541Z,64.40
2023-01-25T23:49:29.399Z,66.00
2023-01-25T23:51:57.434Z,65.53
2023-01-25T23:54:26.833Z,69.17
2023-01-25T23:56:55.133Z,67.10
2023-01-25T23:59:23.024Z,71.57
